Taftsville, VT (05073)

5:32 PM EST on December 18, 2014 (GMT -0500)
Quechee Lakes Sec 1 | Change Station
CLOSE
Current Station
Personal Weather Station
Location: Quechee, VT
Elevation: 1180 ft
Nearby Weather Stations

Elev 1180 ft 43.65 °N, 72.46 °W | Updated 9 seconds ago

Overcast
Overcast
31.6 °F
Feels Like 32 °F
N
1.3
Wind Variable Wind from WNW
Gusts 1.3 mph

Today
High -- | Low -- °F
--% Chance of Precip.
Yesterday
High -- | Low -- °F
Precip. -- in
7:18 AM 4:14 PM
Waning Crescent, 12% visible
Pressure 29.85 in
Visibility 10.0 miles
Clouds Overcast 2500 ft
Windchill 32 °F
Dew Point 28 °F
Humidity 85%
Rainfall 0.00 in
Snow Depth Not available.
UV 0 out of 12
Pollen .10 out of 12
Air Quality Not available.
Flu Activity Not available.
METAR KLEB 182153Z 33008KT 10SM OVC025 02/M03 A2983 RMK AO2 SLP106 T00171033

More Conditions Fewer Conditions

Pressure 29.85 in
Visibility 10.0 miles
Clouds Overcast 2500 ft
Windchill 32 °F
Dew Point 28 °F
Humidity 85%
Rainfall 0.00 in
Snow Depth Not available.
UV 0 out of 12
Pollen .10 out of 12
Air Quality Not available.
Flu Activity Not available.
METAR KLEB 182153Z 33008KT 10SM OVC025 02/M03 A2983 RMK AO2 SLP106 T00171033

More Conditions Fewer Conditions

10-Day Weather Forecast

Almanac

Astronomy

Dec. 18, 2014 Rise Set
Actual Time
Civil Twilight
Nautical Twilight
Astronomical Twilight
Moon
Length of Visible Light
Length of Day
Tomorrow will be .
, % of the Moon is Illuminated

Today's Extremes

State Highs State Lows

Community

WunderPhotos

Upload Photos

1,779,010 photos uploaded!

WunderBlogs® & News

Nearby

Air Quality

  Air Quality AQ Index Pollutant
Not available.

Snow Depth

Station Depth Elevation

Earthquake Activity

City Distance Mag. Time & Date
Minimum magnitude displayed is 2.5.

Coastal Water Temperatures

Place Temperature

Nearby Weather Stations